Time;durP1;ratioP1;P1;durP2;ratioP2;P2;SDS_P1;SDS_P2;PMS_P1;PMS_P2;Temp;Humidity;BMP_temperature;BMP_pressure;BME280_temperature;BME280_humidity;BME280_pressure;Samples;Min_cycle;Max_cycle;Signal;HPM_P1;HPM_P2
2023/10/08 00:02:26;;;;;;;;;10.33;7.33;;;;;26.09;41.84;102414.34;4958580;28;45465;-80
2023/10/08 00:04:55;;;;;;;;;8.33;7.00;;;;;26.38;41.66;102468.16;4958096;28;46359;-79
2023/10/08 00:07:21;;;;;;;;;5.00;5.00;;;;;26.38;41.47;102468.16;4958462;28;45282;-80
2023/10/08 00:09:53;;;;;;;;;11.33;7.67;;;;;26.37;41.93;102475.31;4958527;28;45470;-80
2023/10/08 00:12:20;;;;;;;;;9.00;9.00;;;;;26.37;41.78;102479.81;4958441;28;45366;-79
2023/10/08 00:14:49;;;;;;;;;9.00;9.00;;;;;26.34;41.34;102472.16;4958132;28;45274;-79
2023/10/08 00:17:18;;;;;;;;;9.33;8.00;;;;;26.24;41.40;102462.50;4958027;28;45295;-77
2023/10/08 00:19:44;;;;;;;;;7.67;6.67;;;;;26.24;41.43;102461.66;4958144;28;45468;-80
2023/10/08 00:22:12;;;;;;;;;8.00;8.00;;;;;26.25;41.62;102468.69;4969102;28;45298;-80
2023/10/08 00:24:41;;;;;;;;;11.33;8.00;;;;;26.37;41.40;102494.00;4977650;28;45517;-79
2023/10/08 00:27:08;;;;;;;;;7.00;7.00;;;;;26.37;41.54;102485.16;4977693;28;45300;-79
2023/10/08 00:29:33;;;;;;;;;7.33;7.33;;;;;26.33;41.27;102484.69;4977563;28;45324;-79
2023/10/08 00:31:58;;;;;;;;;7.00;7.00;;;;;26.38;41.21;102497.50;4975912;28;45347;-79
2023/10/08 00:34:24;;;;;;;;;9.33;6.00;;;;;26.29;41.29;102480.66;4977453;28;46291;-79
2023/10/08 00:36:50;;;;;;;;;9.00;8.00;;;;;26.28;41.60;102474.50;4977480;28;45369;-79
2023/10/08 00:39:26;;;;;;;;;8.00;7.00;;;;;26.38;41.56;102486.84;4977698;28;45234;-79
2023/10/08 00:41:58;;;;;;;;;7.33;6.33;;;;;26.34;41.76;102481.00;4975593;28;45380;-79
2023/10/08 00:44:30;;;;;;;;;8.00;8.00;;;;;26.38;41.42;102485.00;4957741;28;47047;-80
2023/10/08 00:46:56;;;;;;;;;8.00;7.00;;;;;26.38;41.49;102484.16;4957463;28;45522;-78
2023/10/08 00:49:25;;;;;;;;;7.67;7.00;;;;;26.33;41.69;102468.66;4957987;28;45282;-79
2023/10/08 00:54:46;;;;;;;;;8.33;8.00;;;;;26.26;41.73;102460.50;4957649;28;46059;-79
2023/10/08 00:57:20;;;;;;;;;9.00;8.33;;;;;26.18;41.61;102441.84;4957733;28;45236;-79
2023/10/08 00:59:50;;;;;;;;;7.67;7.67;;;;;26.22;41.76;102451.19;4957789;28;45571;-79
2023/10/08 01:02:19;;;;;;;;;7.33;7.00;;;;;26.20;41.94;102442.53;4957395;28;45459;-79
2023/10/08 01:04:45;;;;;;;;;8.33;7.00;;;;;26.24;41.74;102453.66;4957410;28;47166;-79
2023/10/08 01:07:15;;;;;;;;;7.00;7.00;;;;;26.25;41.83;102456.19;4957662;28;45385;-79
2023/10/08 01:09:42;;;;;;;;;8.00;7.00;;;;;26.35;41.25;102472.00;4957549;28;45315;-79
2023/10/08 01:12:15;;;;;;;;;11.33;7.00;;;;;26.21;41.31;102446.00;4957451;28;45537;-80
2023/10/08 01:14:45;;;;;;;;;8.00;7.00;;;;;26.32;41.26;102466.16;4956781;28;46666;-79
2023/10/08 01:17:16;;;;;;;;;7.00;7.00;;;;;26.32;41.51;102467.00;4957082;28;45370;-79
2023/10/08 01:20:00;;;;;;;;;7.67;6.00;;;;;26.35;41.68;102468.50;4957265;28;45342;-80
2023/10/08 01:22:29;;;;;;;;;8.00;6.67;;;;;26.30;41.64;102458.34;4970132;28;45663;-79
2023/10/08 01:24:54;;;;;;;;;6.67;6.67;;;;;26.33;41.18;102454.50;4976648;28;46271;-79
2023/10/08 01:27:27;;;;;;;;;8.33;7.33;;;;;26.33;41.46;102454.50;4976775;28;45399;-79
2023/10/08 01:29:53;;;;;;;;;7.67;7.00;;;;;26.35;41.25;102458.66;4976559;28;45417;-79
2023/10/08 01:32:20;;;;;;;;;8.00;7.00;;;;;26.35;41.46;102458.66;4976773;28;45346;-79
2023/10/08 01:34:46;;;;;;;;;7.33;6.33;;;;;26.26;41.34;102441.81;4976652;28;45341;-79
2023/10/08 01:37:18;;;;;;;;;7.33;7.33;;;;;26.23;41.29;102436.81;4976625;28;45302;-79
2023/10/08 01:39:49;;;;;;;;;7.00;7.00;;;;;26.23;41.83;102430.69;4976714;28;45354;-79
2023/10/08 01:42:20;;;;;;;;;9.00;7.00;;;;;26.24;41.56;102433.16;4971812;28;45271;-79
2023/10/08 01:44:47;;;;;;;;;6.33;6.33;;;;;26.26;41.27;102440.97;4956686;28;45389;-79
2023/10/08 01:47:14;;;;;;;;;7.33;6.00;;;;;26.35;41.63;102445.31;4957188;28;45365;-79
2023/10/08 01:49:39;;;;;;;;;8.67;7.33;;;;;26.36;41.25;102446.16;4957324;28;45323;-80
2023/10/08 01:52:13;;;;;;;;;9.00;7.00;;;;;26.25;41.75;102423.34;4957215;28;45518;-80
2023/10/08 01:54:39;;;;;;;;;6.00;6.00;;;;;26.36;41.33;102436.28;4957246;28;46499;-80
2023/10/08 01:57:05;;;;;;;;;8.00;5.33;;;;;26.12;41.53;102408.69;4957075;28;45377;-79
2023/10/08 01:59:31;;;;;;;;;6.33;6.33;;;;;26.32;41.24;102434.13;4956563;28;45330;-79
2023/10/08 02:01:57;;;;;;;;;8.33;7.00;;;;;26.34;41.57;102443.63;4956977;28;45536;-80
2023/10/08 02:04:22;;;;;;;;;8.00;6.00;;;;;26.16;41.67;102415.34;4956797;28;46288;-80
2023/10/08 02:06:48;;;;;;;;;7.33;6.33;;;;;26.25;41.84;102426.84;4956680;28;45414;-81
2023/10/08 02:09:15;;;;;;;;;7.00;6.33;;;;;26.33;41.40;102442.00;4957137;28;45792;-80
2023/10/08 02:11:44;;;;;;;;;9.00;7.67;;;;;26.34;41.41;102437.47;4956884;28;45446;-79
2023/10/08 02:14:11;;;;;;;;;8.00;5.33;;;;;26.33;41.44;102436.66;4956191;28;46382;-80
2023/10/08 02:16:37;;;;;;;;;8.67;5.00;;;;;26.17;41.75;102409.00;4956662;28;45346;-80
2023/10/08 02:19:03;;;;;;;;;7.00;7.00;;;;;26.32;41.25;102421.63;4956410;28;45634;-80
2023/10/08 02:21:29;;;;;;;;;7.00;6.00;;;;;26.17;41.36;102398.34;4962210;28;45287;-80
2023/10/08 02:23:54;;;;;;;;;7.00;7.00;;;;;26.26;41.67;102406.31;4976012;28;45967;-79
2023/10/08 02:26:19;;;;;;;;;6.67;6.67;;;;;26.32;41.93;102418.97;4978523;28;45342;-79
2023/10/08 02:28:45;;;;;;;;;6.33;5.00;;;;;26.23;41.36;102406.66;4979370;28;45310;-80
2023/10/08 02:31:10;;;;;;;;;6.00;6.00;;;;;26.32;41.84;102420.81;4979460;28;45479;-79
2023/10/08 02:33:35;;;;;;;;;5.00;5.00;;;;;26.26;41.58;102409.81;4961746;28;46992;-79
2023/10/08 02:36:04;;;;;;;;;10.00;7.00;;;;;26.32;41.12;102418.97;4961908;28;45879;-79
2023/10/08 02:38:29;;;;;;;;;8.33;6.00;;;;;26.27;41.24;102416.81;4979581;28;45428;-80
2023/10/08 02:40:56;;;;;;;;;5.33;5.33;;;;;26.14;41.61;102395.19;4979452;28;45402;-80
2023/10/08 02:43:23;;;;;;;;;6.67;5.33;;;;;26.16;41.18;102402.00;4965105;28;46250;-80
2023/10/08 02:45:49;;;;;;;;;6.33;6.00;;;;;26.17;41.44;102403.69;4959871;28;45414;-80
2023/10/08 02:48:16;;;;;;;;;7.67;7.67;;;;;26.18;41.19;102405.31;4959730;28;45350;-80
2023/10/08 02:50:47;;;;;;;;;8.33;7.33;;;;;26.14;41.76;102400.50;4959567;28;45479;-80
2023/10/08 02:53:17;;;;;;;;;7.00;7.00;;;;;26.28;41.91;102423.00;4958162;28;48196;-80
2023/10/08 02:55:46;;;;;;;;;5.33;5.33;;;;;26.28;41.89;102423.81;4959475;28;45223;-79
2023/10/08 02:58:15;;;;;;;;;6.33;6.00;;;;;26.31;41.29;102429.81;4959365;28;45296;-79
2023/10/08 03:00:46;;;;;;;;;5.67;5.67;;;;;26.29;41.80;102427.31;4959546;28;45543;-79
2023/10/08 03:03:18;;;;;;;;;7.00;6.00;;;;;26.31;41.34;102425.28;4959362;28;46901;-80
2023/10/08 03:05:50;;;;;;;;;6.00;6.00;;;;;26.22;41.44;102407.66;4959369;28;45377;-80
2023/10/08 03:08:23;;;;;;;;;6.33;5.33;;;;;26.29;41.95;102414.81;4959499;28;45243;-80
2023/10/08 03:10:55;;;;;;;;;6.33;6.33;;;;;26.21;41.55;102400.66;4959416;28;45393;-79
2023/10/08 03:13:20;;;;;;;;;3.67;3.67;;;;;26.17;41.81;102393.00;4958783;28;47348;-79
2023/10/08 03:18:35;;;;;;;;;7.33;5.00;;;;;26.15;41.72;102384.31;4959140;28;45413;-79
2023/10/08 03:21:13;;;;;;;;;7.67;7.33;;;;;26.29;41.29;102405.97;4961104;28;45333;-80
2023/10/08 03:23:43;;;;;;;;;7.00;7.00;;;;;26.28;41.55;102415.78;4978463;28;46913;-79
2023/10/08 03:26:10;;;;;;;;;6.00;6.00;;;;;26.27;41.25;102414.16;4978209;28;45445;-79
2023/10/08 03:28:37;;;;;;;;;5.00;5.00;;;;;26.29;41.27;102417.47;4961181;28;45320;-80
2023/10/08 03:31:13;;;;;;;;;8.00;5.33;;;;;26.30;41.57;102407.63;4978692;28;45444;-79
2023/10/08 03:33:39;;;;;;;;;6.00;6.00;;;;;26.18;41.82;102389.31;4978143;28;46413;-79
2023/10/08 03:36:14;;;;;;;;;5.33;5.33;;;;;26.24;41.31;102398.47;4977883;28;45377;-79
2023/10/08 03:38:52;;;;;;;;;8.33;6.00;;;;;26.06;41.71;102375.53;4978430;28;45285;-79
2023/10/08 03:41:27;;;;;;;;;7.00;4.33;;;;;26.27;41.73;102398.16;4978077;28;45550;-80
2023/10/08 03:43:53;;;;;;;;;5.67;4.33;;;;;26.30;41.51;102402.31;4960279;28;45448;-80
2023/10/08 03:46:23;;;;;;;;;6.00;5.00;;;;;26.30;41.71;102404.97;4958631;28;45486;-80
2023/10/08 03:48:51;;;;;;;;;6.67;5.33;;;;;26.28;41.57;102409.66;4958836;28;45306;-79
2023/10/08 03:51:20;;;;;;;;;6.00;6.00;;;;;26.30;41.49;102415.66;4958902;28;45287;-79
2023/10/08 03:53:58;;;;;;;;;6.00;6.00;;;;;26.27;41.68;102408.81;4958414;28;45613;-79
2023/10/08 03:56:31;;;;;;;;;8.00;6.00;;;;;26.22;41.32;102402.31;4958376;28;45273;-79
2023/10/08 03:59:34;;;;;;;;;5.33;4.67;;;;;26.29;41.76;102419.31;4958688;28;45473;-79
2023/10/08 04:01:54;;;;;;;;;4.00;4.00;;;;;26.21;41.81;102409.50;4956523;28;45401;-79
2023/10/08 04:04:24;;;;;;;;;8.00;7.00;;;;;26.29;41.35;102430.81;4958416;28;47047;-80
2023/10/08 04:06:51;;;;;;;;;8.00;4.67;;;;;26.13;41.37;102393.50;4958480;28;45462;-80
2023/10/08 04:14:16;;;;;;;;;6.00;6.00;;;;;26.13;41.83;102390.84;4958178;28;45979;-79
2023/10/08 04:16:42;;;;;;;;;7.00;6.00;;;;;26.27;41.68;102418.66;4958384;28;45416;-79
2023/10/08 04:19:07;;;;;;;;;6.33;6.33;;;;;26.27;41.46;102419.50;4958231;28;45473;-79
2023/10/08 04:21:33;;;;;;;;;5.33;4.00;;;;;26.24;41.53;102408.31;4964374;28;45160;-80
2023/10/08 04:24:03;;;;;;;;;8.00;6.00;;;;;26.27;41.62;102415.97;4977324;28;46332;-79
2023/10/08 04:26:29;;;;;;;;;4.00;4.00;;;;;26.13;41.88;102394.34;4977731;28;45349;-79
2023/10/08 04:28:57;;;;;;;;;5.00;5.00;;;;;26.23;41.94;102404.81;4976327;28;45584;-79
2023/10/08 04:34:16;;;;;;;;;4.33;4.33;;;;;26.25;41.47;102405.50;4977466;28;45791;-79
2023/10/08 04:36:45;;;;;;;;;5.67;4.67;;;;;26.25;41.24;102408.16;4977538;28;45446;-79
2023/10/08 04:39:26;;;;;;;;;10.00;7.00;;;;;26.13;41.62;102390.84;4977192;28;45291;-79
2023/10/08 04:41:54;;;;;;;;;8.00;6.00;;;;;26.26;41.42;102415.16;4975930;28;45374;-79
2023/10/08 04:44:21;;;;;;;;;7.00;5.00;;;;;26.27;41.44;102407.97;4958012;28;46949;-79
2023/10/08 04:46:47;;;;;;;;;7.00;5.33;;;;;26.26;41.49;102412.47;4957811;28;45345;-80
2023/10/08 04:49:28;;;;;;;;;6.50;6.50;;;;;26.23;41.25;102407.47;4957262;28;45366;-80
2023/10/08 04:52:00;;;;;;;;;7.00;5.33;;;;;26.26;41.20;102412.47;4957886;28;45440;-80
2023/10/08 04:54:31;;;;;;;;;6.00;5.00;;;;;26.26;41.66;102411.63;4957319;28;46293;-80
2023/10/08 04:57:01;;;;;;;;;5.33;5.33;;;;;26.27;41.84;102413.31;4957808;28;45474;-79
2023/10/08 04:59:34;;;;;;;;;7.33;6.00;;;;;26.09;41.79;102393.03;4957873;28;45295;-79
2023/10/08 05:02:20;;;;;;;;;5.00;5.00;;;;;26.22;41.35;102413.00;4957740;28;45402;-80
2023/10/08 05:04:56;;;;;;;;;6.00;5.67;;;;;26.23;41.13;102404.81;4957504;28;45409;-79
2023/10/08 05:12:37;;;;;;;;;4.33;4.00;;;;;26.20;41.88;102407.84;4957493;28;45413;-79
2023/10/08 05:20:56;;;;;;;;;6.00;5.00;;;;;26.12;41.78;102400.69;4935606;28;45441;-79
2023/10/08 05:28:47;;;;;;;;;4.67;4.67;;;;;26.02;41.63;102384.84;4916558;28;45373;-80
2023/10/08 05:34:14;;;;;;;;;4.33;4.33;;;;;26.23;41.44;102422.66;4916427;28;45284;-79
2023/10/08 05:36:49;;;;;;;;;6.67;6.33;;;;;26.13;41.66;102413.00;4915905;28;45463;-81
2023/10/08 05:42:05;;;;;;;;;5.00;4.67;;;;;26.21;41.29;102419.31;4917601;28;45437;-80
2023/10/08 05:44:39;;;;;;;;;5.00;5.00;;;;;26.21;41.18;102425.50;4935535;28;45475;-80
2023/10/08 05:55:47;;;;;;;;;7.00;4.33;;;;;26.18;41.21;102421.34;4897159;29;45400;-80
2023/10/08 06:03:35;;;;;;;;;5.33;4.33;;;;;26.05;41.39;102395.19;4897394;29;45456;-80
2023/10/08 06:09:04;;;;;;;;;6.33;5.33;;;;;26.05;41.44;102402.34;4896866;29;46040;-80
2023/10/08 06:11:56;;;;;;;;;6.67;5.00;;;;;26.14;41.93;102427.19;4897111;29;45440;-80
2023/10/08 06:14:42;;;;;;;;;5.00;5.00;;;;;26.07;41.66;102406.50;4896963;29;45466;-80
2023/10/08 06:17:23;;;;;;;;;5.33;5.33;;;;;26.12;41.69;102419.38;4896985;29;45679;-79
2023/10/08 06:19:52;;;;;;;;;6.00;5.00;;;;;26.22;41.41;102424.50;4898529;28;45960;-80
2023/10/08 06:22:18;;;;;;;;;4.67;4.67;;;;;26.03;41.60;102402.53;4968363;28;45462;-80
2023/10/08 06:24:44;;;;;;;;;3.00;3.00;;;;;26.23;41.51;102430.69;4976217;28;45373;-79
2023/10/08 06:27:09;;;;;;;;;4.67;4.00;;;;;26.07;41.76;102403.84;4975878;28;45521;-79
2023/10/08 06:29:35;;;;;;;;;6.00;4.33;;;;;25.95;41.33;102384.72;4975925;28;45569;-80
2023/10/08 06:32:02;;;;;;;;;4.00;4.00;;;;;26.20;41.73;102423.00;4975902;28;45290;-80
2023/10/08 06:34:28;;;;;;;;;6.00;5.00;;;;;26.16;41.62;102425.16;4975715;28;45427;-80
2023/10/08 06:36:56;;;;;;;;;5.67;5.67;;;;;26.24;41.32;102438.50;4975876;28;45311;-80
2023/10/08 06:39:25;;;;;;;;;6.00;5.67;;;;;25.98;41.69;102398.69;4975791;28;46583;-79
2023/10/08 06:41:54;;;;;;;;;5.00;5.00;;;;;26.26;41.31;102441.81;4974281;28;45800;-79
2023/10/08 06:44:19;;;;;;;;;4.33;4.00;;;;;26.17;41.46;102430.34;4956404;28;45425;-80
2023/10/08 06:46:45;;;;;;;;;6.00;6.00;;;;;26.20;41.66;102436.34;4939100;28;45422;-81
2023/10/08 06:49:11;;;;;;;;;8.67;6.00;;;;;26.30;41.69;102458.34;4956013;28;45348;-80
2023/10/08 06:51:43;;;;;;;;;4.67;4.67;;;;;26.32;41.07;102450.16;4956307;28;45484;-80
2023/10/08 06:54:13;;;;;;;;;5.33;5.33;;;;;26.26;41.41;102443.66;4956245;28;45418;-81
2023/10/08 06:56:38;;;;;;;;;4.00;4.00;;;;;26.27;41.46;102434.66;4956355;28;45351;-81
2023/10/08 06:59:05;;;;;;;;;5.00;5.00;;;;;26.39;41.01;102459.13;4955991;28;45359;-81
2023/10/08 07:01:38;;;;;;;;;4.33;4.33;;;;;26.35;41.04;102447.16;4956233;28;45339;-81
2023/10/08 07:04:11;;;;;;;;;6.33;6.33;;;;;26.39;41.00;102456.47;4955882;28;45334;-81
2023/10/08 07:06:46;;;;;;;;;3.00;3.00;;;;;26.41;40.92;102454.47;4956062;28;45296;-81
2023/10/08 07:11:54;;;;;;;;;4.33;4.00;;;;;26.50;41.17;102455.28;4957659;28;45326;-80
2023/10/08 07:14:27;;;;;;;;;6.00;5.00;;;;;26.54;40.79;102461.97;4959320;28;45330;-80
2023/10/08 07:17:00;;;;;;;;;5.00;5.00;;;;;26.57;41.00;102458.13;4959325;28;45567;-81
2023/10/08 07:19:37;;;;;;;;;6.33;6.00;;;;;26.42;41.10;102437.44;4958406;28;46371;-81
2023/10/08 07:22:05;;;;;;;;;4.00;4.00;;;;;26.54;40.83;102459.31;4968978;28;45389;-81
2023/10/08 07:24:34;;;;;;;;;4.33;4.33;;;;;26.54;40.58;102456.63;4978878;28;45362;-85
2023/10/08 07:27:05;;;;;;;;;5.00;5.00;;;;;26.71;40.67;102468.06;4978774;28;45357;-80
2023/10/08 07:29:32;;;;;;;;;5.00;5.00;;;;;26.65;41.40;102449.25;4978142;28;45373;-79
2023/10/08 07:32:09;;;;;;;;;3.00;3.00;;;;;26.71;41.04;102460.06;4978252;28;45600;-80
2023/10/08 07:34:34;;;;;;;;;4.00;4.00;;;;;26.81;41.22;102465.19;4978135;28;45362;-80
2023/10/08 07:37:00;;;;;;;;;5.33;4.33;;;;;26.89;40.76;102468.81;4978434;28;45480;-81
2023/10/08 07:41:56;;;;;;;;;4.00;4.00;;;;;26.89;41.21;102458.13;4976640;28;45596;-80
2023/10/08 07:44:23;;;;;;;;;5.00;4.00;;;;;26.95;40.88;102455.63;4958805;28;45418;-80
2023/10/08 07:46:49;;;;;;;;;14.67;13.33;;;;;27.17;37.78;102471.03;4958365;28;45463;-79
2023/10/08 07:49:15;;;;;;;;;13.00;13.00;;;;;27.02;37.65;102470.94;4958575;28;46951;-79
2023/10/08 07:51:40;;;;;;;;;11.00;10.00;;;;;26.93;38.03;102454.13;4960470;28;45392;-79
2023/10/08 07:54:09;;;;;;;;;10.00;10.00;;;;;26.95;37.91;102447.63;4967230;28;45340;-78
2023/10/08 07:56:37;;;;;;;;;10.67;8.33;;;;;27.28;37.78;102476.00;4961979;28;45240;-80
2023/10/08 07:59:08;;;;;;;;;14.00;8.00;;;;;27.45;38.04;102473.22;4967976;28;46414;-79
2023/10/08 08:01:34;;;;;;;;;8.00;8.00;;;;;27.76;37.70;102471.47;4970395;28;45366;-80
2023/10/08 08:03:59;;;;;;;;;8.00;7.67;;;;;28.13;37.42;102482.34;4969212;28;45348;-79
2023/10/08 08:06:25;;;;;;;;;11.67;9.33;;;;;28.42;36.12;102471.84;4977811;28;45271;-79
2023/10/08 08:08:51;;;;;;;;;8.67;8.67;;;;;28.63;36.26;102468.47;4977081;28;46975;-80
2023/10/08 08:11:24;;;;;;;;;11.33;11.33;;;;;28.82;35.33;102460.88;4977367;28;45421;-78
2023/10/08 08:13:49;;;;;;;;;13.33;12.33;;;;;28.74;34.81;102443.06;4977603;28;45365;-81
2023/10/08 08:16:18;;;;;;;;;11.67;11.67;;;;;28.98;35.14;102455.47;4977496;28;45278;-80
2023/10/08 08:18:48;;;;;;;;;13.00;12.33;;;;;29.41;34.76;102489.53;4977457;28;47153;-81
2023/10/08 08:21:19;;;;;;;;;14.33;12.67;;;;;29.80;33.90;102481.22;4977392;28;45441;-76
2023/10/08 08:23:49;;;;;;;;;12.00;12.00;;;;;30.12;33.50;102478.16;4976469;28;45365;-79
2023/10/08 08:26:29;;;;;;;;;14.00;13.00;;;;;30.37;33.08;102486.59;4977606;28;45478;-80
2023/10/08 08:28:57;;;;;;;;;12.33;12.33;;;;;30.11;32.81;102492.63;4960355;28;46163;-81
2023/10/08 08:31:23;;;;;;;;;14.33;11.67;;;;;29.72;32.67;102480.34;4978911;28;45451;-80
2023/10/08 08:34:02;;;;;;;;;11.67;11.67;;;;;29.29;33.39;102470.47;4977592;28;45391;-83
2023/10/08 08:36:29;;;;;;;;;11.33;11.33;;;;;28.86;33.86;102482.72;4977638;28;45538;-80
2023/10/08 08:38:55;;;;;;;;;12.00;11.00;;;;;28.43;34.26;102486.06;4977108;28;45383;-79
2023/10/08 08:41:22;;;;;;;;;10.67;10.67;;;;;27.87;34.66;102459.53;4977315;28;45405;-75
2023/10/08 08:43:49;;;;;;;;;12.00;11.67;;;;;27.73;35.14;102490.56;4960060;28;45263;-75
2023/10/08 08:46:15;;;;;;;;;11.00;11.00;;;;;27.37;35.51;102483.97;4957496;28;45307;-76
2023/10/08 08:48:44;;;;;;;;;15.67;15.00;;;;;27.12;35.76;102487.56;4957636;28;46397;-79
2023/10/08 08:51:09;;;;;;;;;14.67;12.67;;;;;26.98;36.74;102499.84;4957621;28;45316;-75
2023/10/08 08:53:38;;;;;;;;;16.67;13.67;;;;;26.58;36.90;102457.94;4957609;28;45433;-75
2023/10/08 08:56:07;;;;;;;;;16.33;13.00;;;;;26.81;37.66;102510.59;4957897;28;45470;-78
2023/10/08 08:58:33;;;;;;;;;15.00;12.00;;;;;26.77;37.38;102497.75;4957502;28;47563;-86
2023/10/08 09:01:02;;;;;;;;;13.67;11.33;;;;;26.58;37.03;102499.81;4963988;28;45561;-75
2023/10/08 09:03:31;;;;;;;;;13.00;13.00;;;;;26.21;37.62;102470.00;4959837;28;45380;-79
2023/10/08 09:05:57;;;;;;;;;11.33;10.00;;;;;25.72;37.56;102417.38;4977091;28;45450;-82
2023/10/08 09:08:28;;;;;;;;;11.33;10.33;;;;;25.73;38.63;102437.75;4976237;28;46425;-76
2023/10/08 09:11:00;;;;;;;;;11.33;10.33;;;;;26.04;38.55;102499.38;4976754;28;45605;-77
2023/10/08 09:13:26;;;;;;;;;11.00;11.00;;;;;25.85;38.80;102474.72;4977135;28;45390;-85
2023/10/08 09:15:52;;;;;;;;;12.33;11.67;;;;;25.67;38.79;102442.84;4976633;28;45430;-86
2023/10/08 09:18:21;;;;;;;;;14.33;12.67;;;;;25.87;38.94;102490.56;4977478;28;46055;-91
2023/10/08 09:20:47;;;;;;;;;11.00;11.00;;;;;25.80;38.91;102491.22;4978176;28;45345;-82
2023/10/08 09:23:17;;;;;;;;;13.67;12.00;;;;;25.56;38.67;102460.00;4977898;28;45425;-83
2023/10/08 09:26:02;;;;;;;;;12.00;11.67;;;;;25.63;39.43;102490.34;4977711;28;45371;-81
2023/10/08 09:28:28;;;;;;;;;12.00;11.50;;;;;25.29;39.45;102450.31;4976084;28;46585;-85
2023/10/08 09:30:58;;;;;;;;;11.75;9.00;;;;;25.42;39.23;102482.81;4977306;28;45378;-82
2023/10/08 09:33:24;;;;;;;;;13.50;13.50;;;;;24.88;39.40;102419.06;4976768;28;45463;-83
2023/10/08 09:35:51;;;;;;;;;11.33;10.00;;;;;24.78;39.84;102421.84;4976631;28;45461;-82
2023/10/08 09:38:22;;;;;;;;;13.00;13.00;;;;;24.85;39.77;102438.84;4977080;28;45480;-83
2023/10/08 09:40:48;;;;;;;;;13.33;12.00;;;;;24.91;39.84;102452.50;4976954;28;45334;-83
2023/10/08 09:43:16;;;;;;;;;11.67;11.67;;;;;25.07;40.42;102483.72;4963557;28;45366;-84
2023/10/08 09:46:24;;;;;;;;;13.67;12.00;;;;;24.96;40.16;102474.16;4970372;28;45318;-84
2023/10/08 09:48:52;;;;;;;;;13.00;12.25;;;;;24.88;40.29;102471.47;4975589;28;47032;-83
2023/10/08 09:51:18;;;;;;;;;14.00;12.00;;;;;24.66;40.35;102444.44;4976422;28;45457;-83
2023/10/08 09:53:55;;;;;;;;;12.67;10.67;;;;;24.50;40.55;102430.03;4976433;28;45389;-83
2023/10/08 09:56:22;;;;;;;;;8.00;8.00;;;;;23.82;41.20;102330.41;4976380;28;45488;-82
2023/10/08 09:58:49;;;;;;;;;15.00;12.33;;;;;24.69;41.07;102455.59;4975625;28;46648;-83
2023/10/08 10:01:18;;;;;;;;;12.00;10.67;;;;;24.59;41.05;102420.28;4976536;28;45303;-82
2023/10/08 10:03:45;;;;;;;;;14.25;13.25;;;;;24.36;41.18;102379.09;4976300;28;45465;-82
2023/10/08 10:06:18;;;;;;;;;14.00;13.00;;;;;24.83;41.04;102443.50;4976002;28;45456;-82
2023/10/08 10:08:44;;;;;;;;;12.67;12.00;;;;;24.94;41.30;102452.19;4976034;28;45680;-82
2023/10/08 10:11:10;;;;;;;;;12.33;12.00;;;;;25.06;40.99;102464.22;4976535;28;45476;-80
2023/10/08 10:13:44;;;;;;;;;13.50;11.50;;;;;24.98;41.46;102439.41;4975633;28;45316;-84
2023/10/08 10:16:11;;;;;;;;;14.50;14.50;;;;;25.16;41.65;102457.97;4976364;28;45486;-78
2023/10/08 10:18:36;;;;;;;;;13.00;12.50;;;;;25.23;40.83;102458.13;4975407;28;46416;-79
2023/10/08 10:21:13;;;;;;;;;13.00;12.00;;;;;25.24;41.46;102459.81;4976279;28;45388;-80
2023/10/08 10:23:42;;;;;;;;;12.67;11.67;;;;;25.18;40.91;102448.81;4976433;28;45416;-84
2023/10/08 10:26:30;;;;;;;;;12.00;10.33;;;;;25.31;41.14;102460.81;4976217;28;45621;-81
2023/10/08 10:29:11;;;;;;;;;12.67;12.67;;;;;25.36;41.20;102455.84;4974712;28;46358;-87
2023/10/08 10:31:38;;;;;;;;;10.33;10.33;;;;;25.12;41.15;102406.84;4976355;28;45344;-89
2023/10/08 10:34:09;;;;;;;;;13.00;11.67;;;;;25.50;41.33;102456.19;4976076;28;45448;-82
2023/10/08 10:36:35;;;;;;;;;12.25;11.00;;;;;25.36;41.50;102423.03;4975932;28;45313;-86
2023/10/08 10:39:15;;;;;;;;;13.00;11.67;;;;;25.45;41.21;102430.00;4975367;28;45761;-86
2023/10/08 10:41:42;;;;;;;;;12.00;11.00;;;;;25.30;41.13;102403.19;4975593;28;45350;-79
2023/10/08 10:44:08;;;;;;;;;13.00;11.00;;;;;25.50;41.30;102433.00;4976005;28;45332;-86
2023/10/08 10:46:36;;;;;;;;;11.67;11.00;;;;;25.40;41.25;102411.03;4977118;28;45369;-85
2023/10/08 10:49:36;;;;;;;;;13.67;11.67;;;;;25.38;41.30;102399.72;4979018;28;46401;-88
2023/10/08 10:51:53;;;;;;;;;12.00;9.67;;;;;25.39;41.09;102398.72;4977909;28;45330;-85
2023/10/08 10:54:23;;;;;;;;;9.67;9.67;;;;;25.25;41.68;102373.56;4978806;28;45385;-91
2023/10/08 10:56:58;;;;;;;;;11.00;10.00;;;;;25.21;41.30;102354.44;4979035;28;45411;-79
2023/10/08 10:59:28;;;;;;;;;15.33;10.67;;;;;24.96;41.40;102317.06;4978861;28;46579;-79
2023/10/08 11:02:20;;;;;;;;;10.67;9.00;;;;;25.67;41.69;102419.72;4978915;28;45374;-81
2023/10/08 11:04:49;;;;;;;;;12.67;11.00;;;;;25.63;41.42;102411.19;4979578;28;45406;-82
2023/10/08 11:07:19;;;;;;;;;8.67;8.00;;;;;25.78;41.17;102433.72;4979014;28;45427;-79
2023/10/08 11:09:46;;;;;;;;;10.00;9.33;;;;;25.55;41.36;102399.72;4978727;28;46184;-82
2023/10/08 11:12:18;;;;;;;;;9.00;9.00;;;;;25.77;41.41;102427.56;4978815;28;45366;-86
2023/10/08 11:14:47;;;;;;;;;9.67;7.67;;;;;25.80;41.00;102437.91;4978887;28;45401;-87
2023/10/08 11:17:14;;;;;;;;;10.33;8.33;;;;;25.81;40.98;102433.41;4978754;28;45376;-76
2023/10/08 11:19:42;;;;;;;;;7.67;7.33;;;;;25.82;41.47;102435.88;4978380;28;45975;-78
2023/10/08 11:22:15;;;;;;;;;10.00;9.00;;;;;25.68;41.59;102396.56;4978812;28;45222;-78
2023/10/08 11:24:42;;;;;;;;;9.67;8.67;;;;;25.61;41.69;102378.56;4978580;28;45311;-84
2023/10/08 11:27:17;;;;;;;;;7.00;7.00;;;;;25.99;41.32;102421.72;4978881;28;45531;-86
2023/10/08 11:29:44;;;;;;;;;8.00;6.33;;;;;26.05;41.20;102415.69;4978356;28;45809;-82
2023/10/08 11:32:12;;;;;;;;;6.33;6.33;;;;;25.87;41.40;102378.59;4978798;28;45320;-88
2023/10/08 11:34:40;;;;;;;;;8.00;6.33;;;;;25.94;40.96;102375.03;4978869;28;45330;-79
2023/10/08 11:37:19;;;;;;;;;10.00;7.00;;;;;26.25;41.55;102416.16;4978587;28;45294;-83
2023/10/08 11:39:46;;;;;;;;;7.00;6.33;;;;;26.32;41.44;102408.28;4978192;28;45435;-80
2023/10/08 11:44:59;;;;;;;;;8.00;7.00;;;;;26.28;41.02;102382.97;4958892;28;45354;-80
2023/10/08 11:47:34;;;;;;;;;7.00;7.00;;;;;26.49;40.97;102406.41;4958624;28;45410;-81
2023/10/08 11:50:10;;;;;;;;;10.67;6.67;;;;;26.54;41.06;102403.25;4959167;28;45283;-84
2023/10/08 11:52:41;;;;;;;;;9.00;5.33;;;;;26.59;40.61;102395.56;4958658;28;45401;-83
2023/10/08 11:55:07;;;;;;;;;7.67;6.33;;;;;26.65;41.01;102398.53;4958746;28;45417;-86
2023/10/08 11:57:35;;;;;;;;;9.00;6.00;;;;;26.68;40.56;102391.00;4959006;28;45378;-80
2023/10/08 12:00:18;;;;;;;;;6.67;6.33;;;;;26.63;40.92;102375.50;4959019;28;47056;-89
2023/10/08 12:02:48;;;;;;;;;9.67;6.67;;;;;26.76;40.48;102383.94;4958823;28;45394;-90
2023/10/08 12:05:20;;;;;;;;;6.33;6.00;;;;;26.79;40.93;102383.59;4958771;28;45298;-79
2023/10/08 12:07:47;;;;;;;;;7.00;7.00;;;;;26.53;40.98;102332.19;4958332;28;45576;-88
2023/10/08 12:10:16;;;;;;;;;7.33;6.00;;;;;26.85;41.01;102378.38;4958291;28;46519;-79
2023/10/08 12:12:42;;;;;;;;;6.67;5.00;;;;;26.71;40.44;102336.44;4958360;28;45450;-85
2023/10/08 12:15:09;;;;;;;;;7.00;6.00;;;;;26.52;40.13;102312.66;4958441;28;45412;-91
2023/10/08 12:17:39;;;;;;;;;6.00;6.00;;;;;26.92;40.64;102367.84;4958594;28;45349;-79
2023/10/08 12:20:22;;;;;;;;;7.67;6.67;;;;;26.92;40.14;102365.16;4957834;28;46137;-82
2023/10/08 12:22:51;;;;;;;;;7.33;7.00;;;;;26.95;40.50;102362.16;4973746;28;45258;-80
2023/10/08 12:25:17;;;;;;;;;11.00;7.00;;;;;26.93;40.82;102352.66;4977850;28;45344;-82
2023/10/08 12:27:43;;;;;;;;;8.00;7.00;;;;;27.01;40.20;102355.25;4977593;28;45477;-81
2023/10/08 12:30:10;;;;;;;;;11.00;7.00;;;;;27.01;41.02;102339.22;4977464;28;46404;-89
2023/10/08 12:32:37;;;;;;;;;7.67;5.67;;;;;27.04;40.64;102341.53;4977909;28;45463;-79
2023/10/08 12:35:03;;;;;;;;;10.00;8.33;;;;;26.89;40.54;102314.78;4977498;28;45342;-80